Time;durP1;ratioP1;P1;durP2;ratioP2;P2;SDS_P1;SDS_P2;PMS_P1;PMS_P2;Temp;Humidity;BMP_temperature;BMP_pressure;BME280_temperature;BME280_humidity;BME280_pressure;Samples;Min_cycle;Max_cycle;Signal;HPM_P1;HPM_P2
2022/02/16 00:00:57;;;;;;;16.70;14.97;;;7.10;99.90;;;;;;6302928;28;20466;-64
2022/02/16 00:04:00;;;;;;;16.37;14.77;;;7.00;99.90;;;;;;6302808;28;20505;-64
2022/02/16 00:07:03;;;;;;;15.43;13.90;;;6.90;99.90;;;;;;6300019;28;20466;-63
2022/02/16 00:10:09;;;;;;;18.53;16.70;;;6.90;99.90;;;;;;6299647;28;21012;-62
2022/02/16 00:13:12;;;;;;;17.37;15.67;;;6.80;99.90;;;;;;6299211;28;20474;-62
2022/02/16 00:16:15;;;;;;;20.40;17.20;;;6.80;99.90;;;;;;6301523;28;20515;-62
2022/02/16 00:19:18;;;;;;;17.47;15.70;;;6.80;99.90;;;;;;6299627;28;20449;-62
2022/02/16 00:22:22;;;;;;;18.43;16.60;;;6.70;99.90;;;;;;6299737;28;20496;-62
2022/02/16 00:25:26;;;;;;;20.90;18.57;;;6.70;99.90;;;;;;6301335;28;20446;-63
2022/02/16 00:28:29;;;;;;;19.43;16.70;;;6.70;99.90;;;;;;6300829;28;20523;-62
2022/02/16 00:31:33;;;;;;;20.70;16.93;;;6.60;99.90;;;;;;6299627;28;20469;-63
2022/02/16 00:34:38;;;;;;;19.30;17.30;;;6.60;99.90;;;;;;6299939;28;20461;-63
2022/02/16 00:37:41;;;;;;;20.50;18.60;;;6.60;99.90;;;;;;6299631;28;20457;-63
2022/02/16 00:40:46;;;;;;;22.57;19.97;;;6.50;99.90;;;;;;6300303;28;20469;-63
2022/02/16 00:43:49;;;;;;;19.47;17.53;;;6.50;99.90;;;;;;6300064;28;20947;-63
2022/02/16 00:46:52;;;;;;;22.53;18.90;;;6.60;99.90;;;;;;6299445;28;20611;-62
2022/02/16 00:49:55;;;;;;;22.87;19.13;;;6.60;99.90;;;;;;6300328;28;20976;-63
2022/02/16 00:52:59;;;;;;;21.23;18.00;;;6.60;99.90;;;;;;6300596;28;20608;-63
2022/02/16 00:56:05;;;;;;;20.97;18.97;;;6.60;99.90;;;;;;6300615;28;20489;-64
2022/02/16 00:59:09;;;;;;;26.30;18.70;;;6.70;99.90;;;;;;6301717;28;20969;-63
2022/02/16 01:02:12;;;;;;;19.57;17.77;;;6.70;99.90;;;;;;6300744;28;20482;-63
2022/02/16 01:05:15;;;;;;;19.67;17.60;;;6.70;99.90;;;;;;6299871;28;20480;-63
2022/02/16 01:08:18;;;;;;;18.70;16.90;;;6.70;99.90;;;;;;6300309;28;20474;-63
2022/02/16 01:11:23;;;;;;;19.37;17.40;;;6.80;99.90;;;;;;6300069;28;20474;-63
2022/02/16 01:14:26;;;;;;;17.03;15.33;;;6.80;99.90;;;;;;6298985;28;20475;-63
2022/02/16 01:17:29;;;;;;;16.77;15.17;;;6.80;99.90;;;;;;6298909;28;20488;-63
2022/02/16 01:20:32;;;;;;;17.33;15.70;;;6.80;99.90;;;;;;6300332;28;20987;-63
2022/02/16 01:23:35;;;;;;;20.10;16.00;;;6.80;99.90;;;;;;6303165;28;20798;-63
2022/02/16 01:26:40;;;;;;;15.40;13.73;;;6.80;99.90;;;;;;6303472;28;20806;-63
2022/02/16 01:29:43;;;;;;;15.83;14.27;;;6.80;99.90;;;;;;6303107;28;20493;-63
2022/02/16 01:32:46;;;;;;;16.77;15.07;;;6.80;99.90;;;;;;6303566;28;20476;-63
2022/02/16 01:35:49;;;;;;;17.23;15.33;;;6.80;99.90;;;;;;6303575;28;20469;-62
2022/02/16 01:38:52;;;;;;;15.60;14.10;;;6.80;99.90;;;;;;6303378;28;20805;-63
2022/02/16 01:41:57;;;;;;;18.40;14.93;;;6.80;99.90;;;;;;6303490;28;20477;-62
2022/02/16 01:45:00;;;;;;;18.13;16.13;;;6.80;99.90;;;;;;6302690;28;20474;-62
2022/02/16 01:48:03;;;;;;;16.93;15.33;;;6.70;99.90;;;;;;6303246;28;20472;-62
2022/02/16 01:51:07;;;;;;;21.30;16.27;;;6.70;99.90;;;;;;6303054;28;20535;-62
2022/02/16 01:54:10;;;;;;;17.77;15.87;;;6.70;99.90;;;;;;6292876;28;20484;-62
2022/02/16 01:57:15;;;;;;;17.97;14.30;;;6.70;99.90;;;;;;6302573;28;20560;-62
2022/02/16 02:00:18;;;;;;;18.50;16.60;;;6.70;99.90;;;;;;6302340;28;20817;-62
2022/02/16 02:03:21;;;;;;;17.57;15.87;;;6.70;99.90;;;;;;6302130;28;20473;-63
2022/02/16 02:06:24;;;;;;;17.10;15.00;;;6.70;99.90;;;;;;6304378;28;20466;-63
2022/02/16 02:09:27;;;;;;;16.13;14.60;;;6.70;99.90;;;;;;6304388;28;20474;-63
2022/02/16 02:12:32;;;;;;;17.67;14.63;;;6.70;99.90;;;;;;6304485;28;20478;-62
2022/02/16 02:15:35;;;;;;;18.67;15.67;;;6.60;99.90;;;;;;6303148;28;20958;-62
2022/02/16 02:18:38;;;;;;;17.30;14.67;;;6.60;99.90;;;;;;6303451;28;20788;-63
2022/02/16 02:21:46;;;;;;;16.97;15.27;;;6.60;99.90;;;;;;6303158;28;20482;-62
2022/02/16 02:24:49;;;;;;;16.57;13.77;;;6.50;99.90;;;;;;6302155;28;20466;-63
2022/02/16 02:27:52;;;;;;;16.87;15.07;;;6.50;99.90;;;;;;6303536;28;20465;-63
2022/02/16 02:30:55;;;;;;;16.80;15.00;;;6.50;99.90;;;;;;6301772;28;20531;-62
2022/02/16 02:33:59;;;;;;;16.50;14.90;;;6.50;99.90;;;;;;6301091;28;20828;-62
2022/02/16 02:37:04;;;;;;;16.00;14.40;;;6.50;99.90;;;;;;6301287;28;20486;-62
2022/02/16 02:40:09;;;;;;;15.93;14.37;;;6.50;99.90;;;;;;6301623;28;20470;-62
2022/02/16 02:43:12;;;;;;;16.00;14.17;;;6.60;99.90;;;;;;6300870;28;20458;-62
2022/02/16 02:46:15;;;;;;;16.07;13.97;;;6.60;99.90;;;;;;6301619;28;20453;-62
2022/02/16 02:49:18;;;;;;;15.17;13.57;;;6.60;99.90;;;;;;6301981;28;20438;-62
2022/02/16 02:52:23;;;;;;;15.47;13.97;;;6.60;99.90;;;;;;6302041;28;20465;-63
2022/02/16 02:55:26;;;;;;;17.47;15.13;;;6.60;99.90;;;;;;6296489;28;20456;-62
2022/02/16 02:58:29;;;;;;;16.40;14.57;;;6.60;99.90;;;;;;6301092;28;20507;-62
2022/02/16 03:01:32;;;;;;;14.83;13.30;;;6.60;99.90;;;;;;6301346;28;20462;-63
2022/02/16 03:04:35;;;;;;;17.60;15.77;;;6.60;99.90;;;;;;6301358;28;20454;-63
2022/02/16 03:07:40;;;;;;;16.80;14.90;;;6.60;99.90;;;;;;6300751;28;20465;-63
2022/02/16 03:10:43;;;;;;;15.67;13.83;;;6.60;99.90;;;;;;6300819;28;20527;-63
2022/02/16 03:13:46;;;;;;;16.10;12.87;;;6.60;99.90;;;;;;6300668;28;20952;-63
2022/02/16 03:16:49;;;;;;;16.40;14.23;;;6.50;99.90;;;;;;6301213;28;20482;-64
2022/02/16 03:19:52;;;;;;;16.10;14.47;;;6.50;99.90;;;;;;6303965;28;20465;-63
2022/02/16 03:22:57;;;;;;;16.47;14.10;;;6.50;99.90;;;;;;6300574;28;20466;-63
2022/02/16 03:26:00;;;;;;;17.40;14.50;;;6.50;99.90;;;;;;6300358;28;20472;-63
2022/02/16 03:29:03;;;;;;;18.93;16.93;;;6.50;99.90;;;;;;6300153;28;20469;-64
2022/02/16 03:32:07;;;;;;;22.77;20.47;;;6.50;99.90;;;;;;6300726;28;20474;-63
2022/02/16 03:35:11;;;;;;;24.13;21.70;;;6.50;99.90;;;;;;6300236;28;20480;-63
2022/02/16 03:38:15;;;;;;;22.47;20.27;;;6.50;99.90;;;;;;6300290;28;20466;-63
2022/02/16 03:41:18;;;;;;;20.10;18.20;;;6.40;99.90;;;;;;6300557;28;20948;-63
2022/02/16 03:44:21;;;;;;;21.03;15.93;;;6.50;99.90;;;;;;6299567;28;20534;-63
2022/02/16 03:47:24;;;;;;;18.20;16.40;;;6.40;99.90;;;;;;6300741;28;20466;-63
2022/02/16 03:50:28;;;;;;;19.90;16.67;;;6.50;99.90;;;;;;6301696;28;20484;-63
2022/02/16 03:53:32;;;;;;;18.80;16.80;;;6.50;99.90;;;;;;6300148;28;20961;-62
2022/02/16 03:56:35;;;;;;;20.20;16.03;;;6.50;99.90;;;;;;6299970;28;20474;-62
2022/02/16 03:59:38;;;;;;;17.90;16.07;;;6.50;99.90;;;;;;6295306;28;20481;-63
2022/02/16 04:02:42;;;;;;;19.23;16.63;;;6.50;99.90;;;;;;6302280;28;20488;-64
2022/02/16 04:05:45;;;;;;;18.90;15.70;;;6.40;99.90;;;;;;6302158;28;20492;-64
2022/02/16 04:08:49;;;;;;;17.47;15.67;;;6.40;99.90;;;;;;6302129;28;20480;-63
2022/02/16 04:11:53;;;;;;;16.83;14.73;;;6.50;99.90;;;;;;6302259;28;20480;-63
2022/02/16 04:14:56;;;;;;;16.53;14.57;;;6.50;99.90;;;;;;6301674;28;20477;-63
2022/02/16 04:17:59;;;;;;;18.27;15.33;;;6.50;99.90;;;;;;6301369;28;20552;-64
2022/02/16 04:21:03;;;;;;;17.00;15.07;;;6.50;99.90;;;;;;6301063;28;20484;-63
2022/02/16 04:24:07;;;;;;;17.97;16.17;;;6.40;99.90;;;;;;6299510;28;20489;-63
2022/02/16 04:27:10;;;;;;;16.63;13.70;;;6.40;99.90;;;;;;6299612;28;20469;-63
2022/02/16 04:30:14;;;;;;;19.43;17.10;;;6.40;99.90;;;;;;6299455;28;20496;-63
2022/02/16 04:33:17;;;;;;;19.73;17.67;;;6.40;99.90;;;;;;6301147;28;20607;-63
2022/02/16 04:36:26;;;;;;;17.23;14.87;;;6.40;99.90;;;;;;6304312;28;20469;-64
2022/02/16 04:39:30;;;;;;;19.27;16.07;;;6.40;99.90;;;;;;6303108;28;20474;-63
2022/02/16 04:42:34;;;;;;;17.33;15.53;;;6.30;99.90;;;;;;6300073;28;20957;-64
2022/02/16 04:45:37;;;;;;;17.27;15.33;;;6.30;99.90;;;;;;6299332;28;20492;-63
2022/02/16 04:48:40;;;;;;;17.10;15.40;;;6.30;99.90;;;;;;6300946;28;20470;-63
2022/02/16 04:51:43;;;;;;;16.93;14.70;;;6.30;99.90;;;;;;6299426;28;20470;-63
2022/02/16 04:54:48;;;;;;;16.70;15.00;;;6.20;99.90;;;;;;6299096;28;20477;-63
2022/02/16 04:57:51;;;;;;;20.77;15.87;;;6.20;99.90;;;;;;6304697;28;20517;-62
2022/02/16 05:00:54;;;;;;;16.10;14.50;;;6.10;99.90;;;;;;6303648;28;20472;-62
2022/02/16 05:03:57;;;;;;;18.77;15.80;;;6.10;99.90;;;;;;6303678;28;20492;-63
2022/02/16 05:07:00;;;;;;;21.10;18.10;;;6.00;99.90;;;;;;6294334;28;20493;-62
2022/02/16 05:10:06;;;;;;;18.53;16.53;;;5.80;99.90;;;;;;6303624;28;20485;-62
2022/02/16 05:13:10;;;;;;;19.10;17.10;;;5.70;99.90;;;;;;6304752;28;20504;-63
2022/02/16 05:16:13;;;;;;;17.93;16.13;;;5.60;99.90;;;;;;6305262;28;20461;-63
2022/02/16 05:19:16;;;;;;;22.60;18.57;;;5.60;99.90;;;;;;6304920;28;20485;-63
2022/02/16 05:22:19;;;;;;;20.00;17.93;;;5.50;99.90;;;;;;6305859;28;20462;-63
2022/02/16 05:25:24;;;;;;;23.70;19.50;;;5.50;99.90;;;;;;6304680;28;20453;-63
2022/02/16 05:28:27;;;;;;;20.03;17.40;;;5.40;99.90;;;;;;6303057;28;20438;-63
2022/02/16 05:31:30;;;;;;;19.97;17.87;;;5.40;99.90;;;;;;6303312;28;20506;-63
2022/02/16 05:34:33;;;;;;;25.33;20.10;;;5.40;99.90;;;;;;6303187;28;20450;-63
2022/02/16 05:37:36;;;;;;;23.93;18.40;;;5.30;99.90;;;;;;6303473;28;20457;-62
2022/02/16 05:40:43;;;;;;;20.70;18.50;;;5.20;99.90;;;;;;6303231;28;20469;-63
2022/02/16 05:43:46;;;;;;;24.20;19.60;;;5.20;99.90;;;;;;6302848;28;20470;-63
2022/02/16 05:46:49;;;;;;;27.57;20.90;;;5.10;99.90;;;;;;6303228;28;20469;-63
2022/02/16 05:49:52;;;;;;;26.50;19.17;;;5.00;99.90;;;;;;6302679;28;20493;-63
2022/02/16 05:52:55;;;;;;;29.37;20.40;;;5.00;99.90;;;;;;6302421;28;20829;-63
2022/02/16 05:56:00;;;;;;;28.70;20.60;;;4.90;99.90;;;;;;6302542;28;20487;-63
2022/02/16 05:59:03;;;;;;;39.37;20.60;;;4.80;99.90;;;;;;6302288;28;20488;-63
2022/02/16 06:02:06;;;;;;;83.27;21.90;;;4.70;99.90;;;;;;6302034;28;20513;-63
2022/02/16 06:05:10;;;;;;;27.70;20.67;;;4.70;99.90;;;;;;6297237;28;20780;-63
2022/02/16 06:08:13;;;;;;;25.50;20.67;;;4.60;99.90;;;;;;6301924;28;20489;-63
2022/02/16 06:11:17;;;;;;;29.83;21.73;;;4.60;99.90;;;;;;6306930;28;20473;-63
2022/02/16 06:14:20;;;;;;;41.33;21.80;;;4.60;99.90;;;;;;6305680;28;20493;-63
2022/02/16 06:17:23;;;;;;;31.30;20.63;;;4.60;99.90;;;;;;6307049;28;20478;-63
2022/02/16 06:20:27;;;;;;;41.33;19.90;;;4.50;99.90;;;;;;6304059;28;20938;-63
2022/02/16 06:23:30;;;;;;;61.80;23.10;;;4.50;99.90;;;;;;6303290;28;20972;-63
2022/02/16 06:26:34;;;;;;;24.50;18.47;;;4.50;99.90;;;;;;6302643;28;20473;-63
2022/02/16 06:29:37;;;;;;;29.03;17.40;;;4.40;99.90;;;;;;6302055;28;20476;-62
2022/02/16 06:32:40;;;;;;;24.37;19.07;;;4.40;99.90;;;;;;6301854;28;20474;-62
2022/02/16 06:35:45;;;;;;;21.90;18.30;;;4.50;99.90;;;;;;6301936;28;20604;-62
2022/02/16 06:38:48;;;;;;;27.63;19.07;;;4.50;99.90;;;;;;6301737;28;20478;-63
2022/02/16 06:41:53;;;;;;;24.67;18.67;;;4.50;99.90;;;;;;6301404;28;20556;-63
2022/02/16 06:44:56;;;;;;;24.07;18.20;;;4.60;99.90;;;;;;6301244;28;20522;-63
2022/02/16 06:47:59;;;;;;;20.43;17.33;;;4.50;99.90;;;;;;6301336;28;20481;-62
2022/02/16 06:51:02;;;;;;;23.97;19.30;;;4.60;99.90;;;;;;6301274;28;20815;-62
2022/02/16 06:54:05;;;;;;;17.93;16.03;;;4.80;99.90;;;;;;6301010;28;21004;-62
2022/02/16 06:57:10;;;;;;;18.70;16.43;;;4.90;99.90;;;;;;6301311;28;20470;-62
2022/02/16 07:00:13;;;;;;;19.03;16.00;;;5.00;99.90;;;;;;6301228;28;20465;-62
2022/02/16 07:03:17;;;;;;;19.30;17.20;;;5.10;99.90;;;;;;6300711;28;20488;-62
2022/02/16 07:06:20;;;;;;;28.57;21.90;;;5.20;99.90;;;;;;6301002;28;20481;-63
2022/02/16 07:09:24;;;;;;;18.90;16.90;;;5.30;99.90;;;;;;6296373;28;20470;-62
2022/02/16 07:12:28;;;;;;;21.50;18.33;;;5.50;99.90;;;;;;6300401;28;20494;-63
2022/02/16 07:15:32;;;;;;;26.40;20.20;;;5.70;99.90;;;;;;6300646;28;20985;-63
2022/02/16 07:18:39;;;;;;;22.27;19.23;;;5.80;99.90;;;;;;6300021;28;20470;-62
2022/02/16 07:21:42;;;;;;;25.30;19.83;;;5.80;99.90;;;;;;6300373;28;20478;-62
2022/02/16 07:24:46;;;;;;;18.60;16.10;;;5.80;99.90;;;;;;6300524;28;20496;-63
2022/02/16 07:27:51;;;;;;;18.17;16.23;;;5.70;99.90;;;;;;6300650;28;20469;-62
2022/02/16 07:30:56;;;;;;;19.07;14.90;;;5.70;99.90;;;;;;6300444;28;20794;-62
2022/02/16 07:34:01;;;;;;;15.73;14.10;;;5.70;99.90;;;;;;6300240;28;20482;-63
2022/02/16 07:37:04;;;;;;;15.90;14.17;;;5.70;99.90;;;;;;6300144;28;20473;-63
2022/02/16 07:40:09;;;;;;;17.57;15.50;;;5.80;99.90;;;;;;6300218;28;20485;-63
2022/02/16 07:43:13;;;;;;;20.80;15.23;;;5.80;99.90;;;;;;6301117;28;20484;-63
2022/02/16 07:46:18;;;;;;;17.60;13.77;;;5.90;99.90;;;;;;6276970;28;20462;-63
2022/02/16 07:49:21;;;;;;;18.47;14.20;;;5.90;99.90;;;;;;6278276;28;20553;-64
2022/02/16 07:52:25;;;;;;;17.67;14.00;;;6.00;99.90;;;;;;6301510;28;20469;-63
2022/02/16 07:55:28;;;;;;;21.37;16.90;;;6.00;99.90;;;;;;6302125;28;20461;-64
2022/02/16 07:58:33;;;;;;;15.97;13.00;;;6.10;99.90;;;;;;6301917;28;20890;-64
2022/02/16 08:01:36;;;;;;;15.00;12.50;;;6.10;99.90;;;;;;6301488;28;20466;-64
2022/02/16 08:04:39;;;;;;;14.73;11.40;;;6.20;99.90;;;;;;6302267;28;20924;-64
2022/02/16 08:07:42;;;;;;;13.43;11.90;;;6.20;99.90;;;;;;6302400;28;20470;-64
2022/02/16 08:10:49;;;;;;;13.83;11.93;;;6.30;99.90;;;;;;6302549;28;20499;-64
2022/02/16 08:13:53;;;;;;;14.67;12.10;;;6.30;99.90;;;;;;6297159;28;20884;-64
2022/02/16 08:16:56;;;;;;;16.07;11.57;;;6.40;99.90;;;;;;6302689;28;20473;-64
2022/02/16 08:20:00;;;;;;;15.10;12.80;;;6.40;99.90;;;;;;6301933;28;20547;-64
2022/02/16 08:23:04;;;;;;;16.57;12.77;;;6.40;99.90;;;;;;6302524;28;20469;-63
2022/02/16 08:26:07;;;;;;;14.70;11.97;;;6.40;99.90;;;;;;6302615;28;20478;-63
2022/02/16 08:29:11;;;;;;;13.40;11.93;;;6.50;99.90;;;;;;6300967;28;20462;-62
2022/02/16 08:32:14;;;;;;;12.40;11.20;;;6.50;99.90;;;;;;6303732;28;20484;-62
2022/02/16 08:35:18;;;;;;;10.90;9.80;;;6.60;99.90;;;;;;6304860;28;20470;-62
2022/02/16 08:38:21;;;;;;;14.40;10.90;;;6.50;99.90;;;;;;6305482;28;21111;-63
2022/02/16 08:41:24;;;;;;;19.23;15.00;;;6.60;99.90;;;;;;6304611;28;20473;-63
2022/02/16 08:44:30;;;;;;;14.00;11.87;;;6.80;99.90;;;;;;6305756;28;20500;-62
2022/02/16 08:47:33;;;;;;;15.47;13.00;;;6.90;99.90;;;;;;6304509;28;20484;-63
2022/02/16 08:50:36;;;;;;;19.80;16.57;;;7.00;99.90;;;;;;6305755;28;20560;-63
2022/02/16 08:53:39;;;;;;;18.80;16.80;;;7.10;99.90;;;;;;6305311;28;20492;-62
2022/02/16 08:56:45;;;;;;;22.17;19.60;;;7.30;99.90;;;;;;6303800;28;20474;-62
2022/02/16 08:59:50;;;;;;;22.83;20.10;;;7.40;99.90;;;;;;6303914;28;20482;-62
2022/02/16 09:02:53;;;;;;;23.23;19.57;;;7.50;99.90;;;;;;6303686;28;20488;-63
2022/02/16 09:05:58;;;;;;;20.57;18.37;;;8.10;99.90;;;;;;6304822;28;20469;-63
2022/02/16 09:09:02;;;;;;;21.80;18.30;;;9.20;99.90;;;;;;6303895;28;20492;-63
2022/02/16 09:12:06;;;;;;;22.43;18.53;;;11.90;99.90;;;;;;6303735;28;20868;-63
2022/02/16 09:15:11;;;;;;;25.03;19.23;;;13.90;95.00;;;;;;6303710;28;20477;-63
2022/02/16 09:18:17;;;;;;;22.23;19.67;;;15.50;87.20;;;;;;6298857;28;20466;-64
2022/02/16 09:21:20;;;;;;;20.73;18.27;;;17.70;79.00;;;;;;6303053;28;20956;-63
2022/02/16 09:24:25;;;;;;;21.93;19.30;;;17.10;70.10;;;;;;6304024;28;20476;-63
2022/02/16 09:27:28;;;;;;;24.43;21.10;;;15.60;71.70;;;;;;6303558;28;20477;-62
2022/02/16 09:30:33;;;;;;;22.60;20.23;;;14.20;78.10;;;;;;6303266;28;20461;-63
2022/02/16 09:33:36;;;;;;;26.87;21.50;;;13.40;80.40;;;;;;6303304;28;20968;-63
2022/02/16 09:36:39;;;;;;;21.63;19.33;;;12.80;81.70;;;;;;6303966;28;20472;-62
2022/02/16 09:39:42;;;;;;;21.53;18.93;;;11.60;87.00;;;;;;6303880;28;20990;-62
2022/02/16 09:42:45;;;;;;;21.47;19.37;;;11.00;90.30;;;;;;6303545;28;20480;-63
2022/02/16 09:45:53;;;;;;;21.70;19.47;;;10.50;91.80;;;;;;6304766;28;20774;-63
2022/02/16 09:48:57;;;;;;;22.20;18.53;;;10.40;93.00;;;;;;6302983;28;20506;-63
2022/02/16 09:52:00;;;;;;;21.80;18.27;;;10.30;93.20;;;;;;6303946;28;20533;-63
2022/02/16 09:55:04;;;;;;;21.63;19.43;;;10.30;94.00;;;;;;6304024;28;20476;-63
2022/02/16 09:58:07;;;;;;;22.63;19.07;;;10.10;94.20;;;;;;6303913;28;20473;-63
2022/02/16 10:01:15;;;;;;;21.27;18.87;;;9.80;95.00;;;;;;6303267;28;20496;-63
2022/02/16 10:04:18;;;;;;;26.30;20.57;;;9.60;95.80;;;;;;6303376;28;20464;-63
2022/02/16 10:07:23;;;;;;;28.17;21.33;;;9.50;96.50;;;;;;6303652;28;20453;-63
2022/02/16 10:10:27;;;;;;;25.13;19.57;;;9.30;97.30;;;;;;6302491;28;20456;-63
2022/02/16 10:13:30;;;;;;;22.27;19.40;;;9.10;98.10;;;;;;6301925;28;20905;-63
2022/02/16 10:16:35;;;;;;;24.47;20.23;;;8.70;98.90;;;;;;6302530;28;20444;-63
2022/02/16 10:19:50;;;;;;;19.40;17.43;;;8.40;99.90;;;;;;6297486;28;20464;-63
2022/02/16 10:22:56;;;;;;;23.57;18.50;;;8.30;99.90;;;;;;6302355;28;20779;-62
2022/02/16 10:25:59;;;;;;;23.13;18.20;;;8.20;99.90;;;;;;6302729;28;20472;-62
2022/02/16 10:29:02;;;;;;;20.97;18.57;;;8.30;99.90;;;;;;6302554;28;20992;-62
2022/02/16 10:32:08;;;;;;;20.33;18.33;;;8.10;99.90;;;;;;6302185;28;20482;-62
2022/02/16 10:35:11;;;;;;;19.40;17.10;;;8.20;99.90;;;;;;6301439;28;20471;-63
2022/02/16 10:38:14;;;;;;;18.90;16.77;;;8.40;99.90;;;;;;6301472;28;20477;-63
2022/02/16 10:41:17;;;;;;;19.23;15.77;;;8.70;99.90;;;;;;6301671;28;20959;-63
2022/02/16 10:44:21;;;;;;;17.90;14.73;;;9.10;99.90;;;;;;6301296;28;20527;-63
2022/02/16 10:47:26;;;;;;;17.53;15.70;;;9.50;99.90;;;;;;6301618;28;20473;-63
2022/02/16 10:50:32;;;;;;;15.63;14.03;;;9.90;99.90;;;;;;6301183;28;20468;-63
2022/02/16 10:53:35;;;;;;;15.33;13.80;;;10.20;98.70;;;;;;6300395;28;20492;-63
2022/02/16 10:56:38;;;;;;;14.53;13.10;;;10.50;98.20;;;;;;6301363;28;20483;-63
2022/02/16 10:59:42;;;;;;;14.30;12.80;;;11.40;97.30;;;;;;6301352;28;20964;-63
2022/02/16 11:02:48;;;;;;;12.77;11.67;;;13.40;93.90;;;;;;6301081;28;20484;-63
2022/02/16 11:05:54;;;;;;;11.40;10.30;;;15.20;90.40;;;;;;6301369;28;20603;-62
2022/02/16 11:08:59;;;;;;;12.10;11.00;;;17.10;81.60;;;;;;6302034;28;20805;-63
2022/02/16 11:12:03;;;;;;;12.40;11.33;;;20.60;70.30;;;;;;6300691;28;20481;-63
2022/02/16 11:15:09;;;;;;;8.67;8.07;;;25.20;54.60;;;;;;6300871;28;20234;-63
2022/02/16 11:18:16;;;;;;;9.83;8.90;;;29.30;40.90;;;;;;6300997;28;20575;-64
2022/02/16 11:21:21;;;;;;;8.33;7.73;;;32.20;32.00;;;;;;6300886;28;20240;-64
2022/02/16 11:24:30;;;;;;;7.68;7.07;;;34.60;28.30;;;;;;6296143;28;20245;-63
2022/02/16 11:27:38;;;;;;;7.90;7.18;;;35.90;25.20;;;;;;6301116;28;20242;-63
2022/02/16 11:30:44;;;;;;;7.60;7.00;;;37.30;23.60;;;;;;6301047;28;20323;-63
2022/02/16 11:34:14;;;;;;;6.90;6.40;;;38.00;22.30;;;;;;6300741;28;20242;-63
2022/02/16 11:37:34;;;;;;;7.03;6.53;;;37.60;21.70;;;;;;6300513;28;20230;-65
2022/02/16 11:40:40;;;;;;;5.20;4.80;;;38.80;21.50;;;;;;6300294;28;20245;-63
2022/02/16 11:43:54;;;;;;;5.60;5.07;;;40.00;20.40;;;;;;6300537;28;20231;-63
2022/02/16 11:47:00;;;;;;;4.78;4.38;;;39.90;19.30;;;;;;6300533;28;20226;-63
2022/02/16 11:50:34;;;;;;;4.45;4.15;;;40.10;19.40;;;;;;6300920;28;20657;-62
2022/02/16 11:53:38;;;;;;;4.68;4.28;;;39.90;18.60;;;;;;6300535;28;20728;-63
2022/02/16 11:56:41;;;;;;;4.68;4.38;;;39.70;19.20;;;;;;6300646;28;20241;-64
2022/02/16 11:59:55;;;;;;;4.45;4.15;;;39.80;18.80;;;;;;6300507;28;20234;-63
2022/02/16 12:03:27;;;;;;;5.43;4.93;;;40.00;18.90;;;;;;6300272;28;20292;-63
2022/02/16 12:06:38;;;;;;;4.32;4.03;;;40.10;19.00;;;;;;6300046;28;20686;-63
2022/02/16 12:09:41;;;;;;;5.40;5.00;;;40.70;17.90;;;;;;6300560;28;20226;-63
2022/02/16 12:12:47;;;;;;;5.15;4.85;;;40.20;18.50;;;;;;6299686;28;20230;-63
2022/02/16 12:16:12;;;;;;;4.82;4.43;;;40.70;18.20;;;;;;6300386;28;20706;-63
2022/02/16 12:19:19;;;;;;;4.63;4.32;;;41.20;18.20;;;;;;6300777;28;20231;-63
2022/02/16 12:22:23;;;;;;;4.43;4.13;;;42.00;17.70;;;;;;6301092;28;20241;-63
2022/02/16 12:25:27;;;;;;;4.78;4.38;;;41.20;17.60;;;;;;6295996;28;20634;-63
2022/02/16 12:28:30;;;;;;;4.95;4.65;;;41.40;17.90;;;;;;6301086;28;20203;-63
2022/02/16 12:31:35;;;;;;;4.55;4.25;;;40.90;18.20;;;;;;6302113;28;20203;-63
2022/02/16 12:34:38;;;;;;;5.20;4.80;;;40.30;18.20;;;;;;6300299;28;20693;-62
2022/02/16 12:37:44;;;;;;;4.90;4.50;;;39.90;18.30;;;;;;6299941;28;20577;-63
2022/02/16 12:40:47;;;;;;;5.88;5.05;;;39.40;18.30;;;;;;6299459;28;20281;-62
2022/02/16 12:43:55;;;;;;;5.03;4.72;;;40.00;18.60;;;;;;6299746;28;20234;-62
2022/02/16 12:46:59;;;;;;;4.50;4.20;;;40.00;18.20;;;;;;6299714;28;20222;-62
2022/02/16 12:50:07;;;;;;;6.72;4.50;;;39.90;18.40;;;;;;6299376;28;20293;-62
2022/02/16 12:53:13;;;;;;;4.68;4.28;;;40.30;18.20;;;;;;6299397;28;20227;-64
2022/02/16 12:56:16;;;;;;;5.25;4.85;;;39.10;18.20;;;;;;6299509;28;20226;-64
2022/02/16 12:59:22;;;;;;;5.32;4.82;;;38.60;18.90;;;;;;6299744;28;20226;-63
2022/02/16 13:02:27;;;;;;;5.50;4.90;;;38.60;19.10;;;;;;6299359;28;20685;-63
2022/02/16 13:05:37;;;;;;;5.03;4.50;;;38.20;18.90;;;;;;6299411;28;20667;-64
2022/02/16 13:08:43;;;;;;;4.55;4.20;;;38.60;19.20;;;;;;6300076;28;20231;-63
2022/02/16 13:11:51;;;;;;;5.57;4.10;;;39.00;18.70;;;;;;6300098;28;20226;-63
2022/02/16 13:14:55;;;;;;;6.57;5.20;;;39.70;18.60;;;;;;6299268;28;20230;-63
2022/02/16 13:17:58;;;;;;;4.78;4.28;;;40.50;18.50;;;;;;6302688;28;20562;-63
2022/02/16 13:21:14;;;;;;;4.60;4.30;;;40.70;17.90;;;;;;6303582;28;20234;-63
2022/02/16 13:24:19;;;;;;;3.90;3.60;;;40.90;17.80;;;;;;6308910;22;20573;-64
2022/02/16 13:27:22;;;;;;;4.90;4.50;;;40.90;17.70;;;;;;6303502;28;20238;-63
2022/02/16 13:30:26;;;;;;;4.10;3.70;;;39.80;17.80;;;;;;6298664;28;20242;-63
2022/02/16 13:33:30;;;;;;;4.72;4.32;;;39.40;18.40;;;;;;6285026;28;20300;-64
2022/02/16 13:36:36;;;;;;;4.22;3.92;;;39.70;18.10;;;;;;6278688;28;20242;-64
2022/02/16 13:39:41;;;;;;;4.13;3.72;;;39.60;18.10;;;;;;6278359;28;20227;-63
2022/02/16 13:42:56;;;;;;;4.03;3.67;;;38.70;18.40;;;;;;6278565;28;20293;-63
2022/02/16 13:46:03;;;;;;;3.95;3.65;;;38.00;19.10;;;;;;6278286;28;20231;-63
2022/02/16 13:49:11;;;;;;;4.07;3.78;;;38.20;18.80;;;;;;6278205;28;20231;-63
2022/02/16 13:52:16;;;;;;;4.28;3.88;;;38.50;18.70;;;;;;6279093;28;20232;-64
2022/02/16 13:55:21;;;;;;;3.28;3.08;;;38.50;18.60;;;;;;6303647;28;20288;-63
2022/02/16 13:58:27;;;;;;;3.67;2.90;;;38.40;18.60;;;;;;6279248;28;20646;-64
2022/02/16 14:02:03;;;;;;;3.63;3.42;;;38.60;18.60;;;;;;6279744;28;20227;-64
2022/02/16 14:05:08;;;;;;;3.70;3.40;;;37.50;18.70;;;;;;6279140;28;20242;-64
2022/02/16 14:08:31;;;;;;;3.33;3.03;;;36.50;19.80;;;;;;6278763;28;20255;-64
2022/02/16 14:11:35;;;;;;;3.00;2.80;;;34.80;20.60;;;;;;6278773;28;20238;-64
2022/02/16 14:14:39;;;;;;;3.88;2.90;;;32.70;22.00;;;;;;6278349;28;20231;-64
2022/02/16 14:17:44;;;;;;;6.93;3.27;;;29.90;23.80;;;;;;6277960;28;20235;-64
2022/02/16 14:20:47;;;;;;;3.20;2.80;;;27.40;26.50;;;;;;6278624;28;20235;-64
2022/02/16 14:23:50;;;;;;;2.17;2.00;;;25.30;28.60;;;;;;6278777;28;20235;-64
2022/02/16 14:26:55;;;;;;;3.80;2.20;;;23.60;30.40;;;;;;6279135;28;20235;-64
2022/02/16 14:29:58;;;;;;;2.63;2.20;;;22.20;32.10;;;;;;6279126;28;20649;-64
2022/02/16 14:33:01;;;;;;;2.33;2.13;;;20.80;34.10;;;;;;6278305;28;20251;-64
2022/02/16 14:36:05;;;;;;;3.50;2.27;;;19.10;36.60;;;;;;6278424;28;20235;-63
2022/02/16 14:39:09;;;;;;;3.00;1.57;;;18.00;38.50;;;;;;6277953;28;20239;-63
2022/02/16 14:42:15;;;;;;;3.10;1.33;;;17.50;40.00;;;;;;6277590;28;20238;-63
2022/02/16 14:45:18;;;;;;;1.77;1.20;;;17.10;41.00;;;;;;6277692;28;20239;-64
2022/02/16 14:48:21;;;;;;;3.67;1.80;;;16.60;42.20;;;;;;6277970;28;20474;-64
2022/02/16 14:51:27;;;;;;;1.80;1.27;;;16.20;43.20;;;;;;6276995;28;20493;-63
2022/02/16 14:54:32;;;;;;;2.10;1.70;;;15.60;44.50;;;;;;6277313;28;20478;-64
2022/02/16 14:57:37;;;;;;;2.33;1.57;;;15.50;45.40;;;;;;6277396;28;20485;-63
2022/02/16 15:00:40;;;;;;;1.40;1.30;;;15.50;45.80;;;;;;6276948;28;20485;-63
2022/02/16 15:03:44;;;;;;;2.63;2.43;;;15.10;46.40;;;;;;6276692;28;20493;-63
2022/02/16 15:06:47;;;;;;;1.03;1.00;;;14.90;46.90;;;;;;6276676;28;20961;-64
2022/02/16 15:09:50;;;;;;;4.07;1.67;;;14.70;47.40;;;;;;6276811;28;20466;-64
2022/02/16 15:12:55;;;;;;;2.13;1.67;;;14.40;48.70;;;;;;6276574;28;20470;-64
2022/02/16 15:15:59;;;;;;;1.80;1.70;;;14.10;49.80;;;;;;6277172;28;20475;-64
2022/02/16 15:19:09;;;;;;;1.53;1.43;;;13.90;50.90;;;;;;6276296;28;20480;-64
2022/02/16 15:22:13;;;;;;;2.53;1.90;;;13.90;51.20;;;;;;6275841;28;20474;-64
2022/02/16 15:25:16;;;;;;;2.37;1.50;;;13.90;51.40;;;;;;6275952;28;20470;-63
2022/02/16 15:28:27;;;;;;;1.43;1.33;;;13.70;52.00;;;;;;6275841;28;20460;-66
2022/02/16 15:31:31;;;;;;;2.30;1.60;;;13.50;53.00;;;;;;6276176;28;20771;-64
2022/02/16 15:34:35;;;;;;;2.23;2.03;;;13.00;54.20;;;;;;6271498;28;20840;-63
2022/02/16 15:37:38;;;;;;;3.43;1.30;;;12.90;55.10;;;;;;6276630;28;20932;-64
2022/02/16 15:40:41;;;;;;;3.53;1.67;;;12.90;55.90;;;;;;6276160;28;20497;-64
2022/02/16 15:43:46;;;;;;;2.53;2.03;;;12.70;56.60;;;;;;6275826;28;20465;-63
2022/02/16 15:46:50;;;;;;;3.30;1.80;;;12.50;57.80;;;;;;6275768;28;20941;-63
2022/02/16 15:49:53;;;;;;;2.30;1.73;;;12.30;59.20;;;;;;6275778;28;20481;-63